sensor_id;sensor_type;location;lat;lon;timestamp;P1;durP1;ratioP1;P2;durP2;ratioP2
33475;SDS011;19814;48.224;11.422;2023-07-13T00:02:05;5.78;;;3.10;;
33475;SDS011;19814;48.224;11.422;2023-07-13T00:04:31;5.80;;;3.20;;
33475;SDS011;19814;48.224;11.422;2023-07-13T00:06:57;5.78;;;3.17;;
33475;SDS011;19814;48.224;11.422;2023-07-13T00:09:22;6.72;;;2.97;;
33475;SDS011;19814;48.224;11.422;2023-07-13T00:11:53;5.45;;;3.03;;
33475;SDS011;19814;48.224;11.422;2023-07-13T00:14:20;5.13;;;2.67;;
33475;SDS011;19814;48.224;11.422;2023-07-13T00:16:46;5.50;;;3.00;;
33475;SDS011;19814;48.224;11.422;2023-07-13T00:19:12;6.05;;;2.90;;
33475;SDS011;19814;48.224;11.422;2023-07-13T00:21:38;5.10;;;2.53;;
33475;SDS011;19814;48.224;11.422;2023-07-13T00:24:05;4.82;;;2.78;;
33475;SDS011;19814;48.224;11.422;2023-07-13T00:26:32;6.88;;;2.92;;
33475;SDS011;19814;48.224;11.422;2023-07-13T00:28:58;8.10;;;2.80;;
33475;SDS011;19814;48.224;11.422;2023-07-13T00:31:24;5.70;;;2.88;;
33475;SDS011;19814;48.224;11.422;2023-07-13T00:33:50;9.02;;;3.42;;
33475;SDS011;19814;48.224;11.422;2023-07-13T00:36:16;5.72;;;3.28;;
33475;SDS011;19814;48.224;11.422;2023-07-13T00:38:42;5.05;;;2.97;;
33475;SDS011;19814;48.224;11.422;2023-07-13T00:41:08;6.07;;;3.05;;
33475;SDS011;19814;48.224;11.422;2023-07-13T00:43:34;7.75;;;3.38;;
33475;SDS011;19814;48.224;11.422;2023-07-13T00:46:14;8.23;;;3.90;;
33475;SDS011;19814;48.224;11.422;2023-07-13T00:48:47;7.70;;;3.15;;
33475;SDS011;19814;48.224;11.422;2023-07-13T00:51:14;5.72;;;2.60;;
33475;SDS011;19814;48.224;11.422;2023-07-13T00:53:44;4.88;;;2.80;;
33475;SDS011;19814;48.224;11.422;2023-07-13T00:56:09;6.30;;;3.00;;
33475;SDS011;19814;48.224;11.422;2023-07-13T00:58:36;4.82;;;2.90;;
33475;SDS011;19814;48.224;11.422;2023-07-13T01:01:01;4.82;;;2.70;;
33475;SDS011;19814;48.224;11.422;2023-07-13T01:03:27;6.25;;;3.15;;
33475;SDS011;19814;48.224;11.422;2023-07-13T01:05:53;6.07;;;2.78;;
33475;SDS011;19814;48.224;11.422;2023-07-13T01:08:20;6.40;;;3.35;;
33475;SDS011;19814;48.224;11.422;2023-07-13T01:10:53;6.63;;;3.25;;
33475;SDS011;19814;48.224;11.422;2023-07-13T01:13:20;7.40;;;3.38;;
33475;SDS011;19814;48.224;11.422;2023-07-13T01:15:47;6.65;;;3.25;;
33475;SDS011;19814;48.224;11.422;2023-07-13T01:20:50;5.78;;;3.13;;
33475;SDS011;19814;48.224;11.422;2023-07-13T01:23:20;7.25;;;2.97;;
33475;SDS011;19814;48.224;11.422;2023-07-13T01:25:46;10.63;;;3.83;;
33475;SDS011;19814;48.224;11.422;2023-07-13T01:28:12;10.38;;;3.60;;
33475;SDS011;19814;48.224;11.422;2023-07-13T01:30:38;10.07;;;3.28;;
33475;SDS011;19814;48.224;11.422;2023-07-13T01:33:06;10.60;;;3.17;;
33475;SDS011;19814;48.224;11.422;2023-07-13T01:35:32;5.40;;;2.78;;
33475;SDS011;19814;48.224;11.422;2023-07-13T01:37:58;6.72;;;2.70;;
33475;SDS011;19814;48.224;11.422;2023-07-13T01:40:26;7.22;;;3.20;;
33475;SDS011;19814;48.224;11.422;2023-07-13T01:42:52;6.15;;;3.05;;
33475;SDS011;19814;48.224;11.422;2023-07-13T01:45:18;4.30;;;2.53;;
33475;SDS011;19814;48.224;11.422;2023-07-13T01:47:43;5.30;;;3.05;;
33475;SDS011;19814;48.224;11.422;2023-07-13T01:50:09;6.40;;;3.00;;
33475;SDS011;19814;48.224;11.422;2023-07-13T01:52:35;6.68;;;2.78;;
33475;SDS011;19814;48.224;11.422;2023-07-13T01:55:00;7.80;;;3.30;;
33475;SDS011;19814;48.224;11.422;2023-07-13T01:57:27;6.80;;;2.95;;
33475;SDS011;19814;48.224;11.422;2023-07-13T01:59:52;9.35;;;3.10;;
33475;SDS011;19814;48.224;11.422;2023-07-13T02:02:18;8.40;;;3.30;;
33475;SDS011;19814;48.224;11.422;2023-07-13T02:04:44;8.20;;;3.75;;
33475;SDS011;19814;48.224;11.422;2023-07-13T02:07:09;7.82;;;3.47;;
33475;SDS011;19814;48.224;11.422;2023-07-13T02:09:35;6.20;;;3.28;;
33475;SDS011;19814;48.224;11.422;2023-07-13T02:12:00;7.43;;;3.50;;
33475;SDS011;19814;48.224;11.422;2023-07-13T02:14:26;6.82;;;3.42;;
33475;SDS011;19814;48.224;11.422;2023-07-13T02:16:51;5.43;;;3.60;;
33475;SDS011;19814;48.224;11.422;2023-07-13T02:19:17;7.20;;;3.50;;
33475;SDS011;19814;48.224;11.422;2023-07-13T02:21:42;5.55;;;3.33;;
33475;SDS011;19814;48.224;11.422;2023-07-13T02:24:08;8.05;;;3.53;;
33475;SDS011;19814;48.224;11.422;2023-07-13T02:26:34;11.63;;;3.75;;
33475;SDS011;19814;48.224;11.422;2023-07-13T02:28:59;6.35;;;3.40;;
33475;SDS011;19814;48.224;11.422;2023-07-13T02:31:25;6.43;;;3.22;;
33475;SDS011;19814;48.224;11.422;2023-07-13T02:33:51;8.18;;;3.72;;
33475;SDS011;19814;48.224;11.422;2023-07-13T02:36:16;9.07;;;3.33;;
33475;SDS011;19814;48.224;11.422;2023-07-13T02:38:43;7.00;;;4.05;;
33475;SDS011;19814;48.224;11.422;2023-07-13T02:41:09;8.27;;;3.95;;
33475;SDS011;19814;48.224;11.422;2023-07-13T02:43:36;7.97;;;4.18;;
33475;SDS011;19814;48.224;11.422;2023-07-13T02:46:02;6.05;;;3.50;;
33475;SDS011;19814;48.224;11.422;2023-07-13T02:48:34;6.20;;;3.70;;
33475;SDS011;19814;48.224;11.422;2023-07-13T02:51:00;7.60;;;3.97;;
33475;SDS011;19814;48.224;11.422;2023-07-13T02:53:26;8.60;;;4.07;;
33475;SDS011;19814;48.224;11.422;2023-07-13T02:55:51;8.82;;;4.15;;
33475;SDS011;19814;48.224;11.422;2023-07-13T02:58:17;8.07;;;4.30;;
33475;SDS011;19814;48.224;11.422;2023-07-13T03:00:44;8.23;;;3.78;;
33475;SDS011;19814;48.224;11.422;2023-07-13T03:03:11;8.43;;;3.97;;
33475;SDS011;19814;48.224;11.422;2023-07-13T03:05:38;7.80;;;3.60;;
33475;SDS011;19814;48.224;11.422;2023-07-13T03:08:05;6.80;;;3.70;;
33475;SDS011;19814;48.224;11.422;2023-07-13T03:10:31;6.22;;;3.70;;
33475;SDS011;19814;48.224;11.422;2023-07-13T03:12:57;5.15;;;3.20;;
33475;SDS011;19814;48.224;11.422;2023-07-13T03:15:23;5.82;;;2.75;;
33475;SDS011;19814;48.224;11.422;2023-07-13T03:17:49;6.45;;;3.47;;
33475;SDS011;19814;48.224;11.422;2023-07-13T03:20:14;7.00;;;4.00;;
33475;SDS011;19814;48.224;11.422;2023-07-13T03:22:40;9.65;;;3.67;;
33475;SDS011;19814;48.224;11.422;2023-07-13T03:25:06;5.13;;;2.85;;
33475;SDS011;19814;48.224;11.422;2023-07-13T03:27:32;6.95;;;3.30;;
33475;SDS011;19814;48.224;11.422;2023-07-13T03:29:58;7.20;;;3.42;;
33475;SDS011;19814;48.224;11.422;2023-07-13T03:32:23;5.55;;;3.00;;
33475;SDS011;19814;48.224;11.422;2023-07-13T03:34:49;6.10;;;3.40;;
33475;SDS011;19814;48.224;11.422;2023-07-13T03:37:14;5.68;;;3.30;;
33475;SDS011;19814;48.224;11.422;2023-07-13T03:39:40;6.43;;;3.20;;
33475;SDS011;19814;48.224;11.422;2023-07-13T03:42:06;5.20;;;3.35;;
33475;SDS011;19814;48.224;11.422;2023-07-13T03:44:31;4.57;;;2.92;;
33475;SDS011;19814;48.224;11.422;2023-07-13T03:46:57;5.93;;;3.13;;
33475;SDS011;19814;48.224;11.422;2023-07-13T03:49:23;5.18;;;2.90;;
33475;SDS011;19814;48.224;11.422;2023-07-13T03:51:48;4.55;;;2.45;;
33475;SDS011;19814;48.224;11.422;2023-07-13T03:54:14;5.47;;;2.80;;
33475;SDS011;19814;48.224;11.422;2023-07-13T03:56:39;5.68;;;3.03;;
33475;SDS011;19814;48.224;11.422;2023-07-13T03:59:05;6.15;;;3.25;;
33475;SDS011;19814;48.224;11.422;2023-07-13T04:01:30;6.57;;;3.08;;
33475;SDS011;19814;48.224;11.422;2023-07-13T04:03:56;6.50;;;3.40;;
33475;SDS011;19814;48.224;11.422;2023-07-13T04:06:23;6.90;;;3.30;;
33475;SDS011;19814;48.224;11.422;2023-07-13T04:08:52;5.07;;;2.97;;
33475;SDS011;19814;48.224;11.422;2023-07-13T04:11:20;6.70;;;3.35;;
33475;SDS011;19814;48.224;11.422;2023-07-13T04:13:47;6.13;;;3.00;;
33475;SDS011;19814;48.224;11.422;2023-07-13T04:16:14;6.25;;;3.10;;
33475;SDS011;19814;48.224;11.422;2023-07-13T04:18:40;5.32;;;3.03;;
33475;SDS011;19814;48.224;11.422;2023-07-13T04:21:06;7.10;;;3.08;;
33475;SDS011;19814;48.224;11.422;2023-07-13T04:23:32;5.72;;;3.08;;
33475;SDS011;19814;48.224;11.422;2023-07-13T04:25:58;5.32;;;2.70;;
33475;SDS011;19814;48.224;11.422;2023-07-13T04:28:24;5.75;;;3.28;;
33475;SDS011;19814;48.224;11.422;2023-07-13T04:30:51;5.07;;;2.95;;
33475;SDS011;19814;48.224;11.422;2023-07-13T04:33:17;7.97;;;3.35;;
33475;SDS011;19814;48.224;11.422;2023-07-13T04:35:43;6.43;;;3.05;;
33475;SDS011;19814;48.224;11.422;2023-07-13T04:38:11;6.07;;;3.00;;
33475;SDS011;19814;48.224;11.422;2023-07-13T04:40:37;6.75;;;2.78;;
33475;SDS011;19814;48.224;11.422;2023-07-13T04:43:03;5.80;;;2.72;;
33475;SDS011;19814;48.224;11.422;2023-07-13T04:45:28;4.70;;;2.60;;
33475;SDS011;19814;48.224;11.422;2023-07-13T04:47:55;5.03;;;2.60;;
33475;SDS011;19814;48.224;11.422;2023-07-13T04:50:21;6.25;;;2.45;;
33475;SDS011;19814;48.224;11.422;2023-07-13T04:52:48;6.20;;;2.90;;
33475;SDS011;19814;48.224;11.422;2023-07-13T04:55:15;7.00;;;2.97;;
33475;SDS011;19814;48.224;11.422;2023-07-13T04:57:41;5.40;;;2.63;;
33475;SDS011;19814;48.224;11.422;2023-07-13T05:00:06;6.43;;;2.58;;
33475;SDS011;19814;48.224;11.422;2023-07-13T05:02:33;5.60;;;2.80;;
33475;SDS011;19814;48.224;11.422;2023-07-13T05:04:59;6.20;;;2.28;;
33475;SDS011;19814;48.224;11.422;2023-07-13T05:07:25;6.43;;;2.90;;
33475;SDS011;19814;48.224;11.422;2023-07-13T05:09:51;6.18;;;2.60;;
33475;SDS011;19814;48.224;11.422;2023-07-13T05:12:17;5.07;;;2.75;;
33475;SDS011;19814;48.224;11.422;2023-07-13T05:14:43;5.95;;;3.03;;
33475;SDS011;19814;48.224;11.422;2023-07-13T05:17:08;5.63;;;2.53;;
33475;SDS011;19814;48.224;11.422;2023-07-13T05:19:34;4.88;;;2.45;;
33475;SDS011;19814;48.224;11.422;2023-07-13T05:22:00;4.28;;;2.40;;
33475;SDS011;19814;48.224;11.422;2023-07-13T05:24:25;4.82;;;2.38;;
33475;SDS011;19814;48.224;11.422;2023-07-13T05:26:51;7.65;;;2.72;;
33475;SDS011;19814;48.224;11.422;2023-07-13T05:29:18;4.35;;;2.20;;
33475;SDS011;19814;48.224;11.422;2023-07-13T05:31:44;4.40;;;2.35;;
33475;SDS011;19814;48.224;11.422;2023-07-13T05:34:10;6.28;;;2.40;;
33475;SDS011;19814;48.224;11.422;2023-07-13T05:36:35;6.50;;;2.67;;
33475;SDS011;19814;48.224;11.422;2023-07-13T05:39:02;5.40;;;3.08;;
33475;SDS011;19814;48.224;11.422;2023-07-13T05:41:28;4.35;;;2.40;;
33475;SDS011;19814;48.224;11.422;2023-07-13T05:43:54;4.40;;;2.28;;
33475;SDS011;19814;48.224;11.422;2023-07-13T05:46:19;4.82;;;2.63;;
33475;SDS011;19814;48.224;11.422;2023-07-13T05:48:45;5.07;;;2.42;;
33475;SDS011;19814;48.224;11.422;2023-07-13T05:51:10;5.25;;;2.25;;
33475;SDS011;19814;48.224;11.422;2023-07-13T05:53:36;4.35;;;2.17;;
33475;SDS011;19814;48.224;11.422;2023-07-13T05:56:01;5.68;;;2.78;;
33475;SDS011;19814;48.224;11.422;2023-07-13T05:58:27;4.95;;;2.42;;
33475;SDS011;19814;48.224;11.422;2023-07-13T06:00:59;4.35;;;2.35;;
33475;SDS011;19814;48.224;11.422;2023-07-13T06:03:33;4.72;;;2.60;;
33475;SDS011;19814;48.224;11.422;2023-07-13T06:05:59;5.00;;;2.28;;
33475;SDS011;19814;48.224;11.422;2023-07-13T06:08:27;5.45;;;2.30;;
33475;SDS011;19814;48.224;11.422;2023-07-13T06:10:53;4.50;;;1.90;;
33475;SDS011;19814;48.224;11.422;2023-07-13T06:13:18;7.05;;;2.53;;
33475;SDS011;19814;48.224;11.422;2023-07-13T06:15:50;4.78;;;2.33;;
33475;SDS011;19814;48.224;11.422;2023-07-13T06:18:16;4.38;;;2.00;;
33475;SDS011;19814;48.224;11.422;2023-07-13T06:20:41;6.15;;;2.70;;
33475;SDS011;19814;48.224;11.422;2023-07-13T06:23:07;4.72;;;2.05;;
33475;SDS011;19814;48.224;11.422;2023-07-13T06:25:33;17.33;;;2.63;;
33475;SDS011;19814;48.224;11.422;2023-07-13T06:27:58;2.78;;;1.60;;
33475;SDS011;19814;48.224;11.422;2023-07-13T06:30:24;3.97;;;1.83;;
33475;SDS011;19814;48.224;11.422;2023-07-13T06:32:49;2.38;;;1.58;;
33475;SDS011;19814;48.224;11.422;2023-07-13T06:35:15;2.90;;;1.60;;
33475;SDS011;19814;48.224;11.422;2023-07-13T06:37:41;6.22;;;1.70;;
33475;SDS011;19814;48.224;11.422;2023-07-13T06:40:06;3.08;;;1.75;;
33475;SDS011;19814;48.224;11.422;2023-07-13T06:42:32;3.35;;;1.55;;
33475;SDS011;19814;48.224;11.422;2023-07-13T06:44:58;6.82;;;1.80;;
33475;SDS011;19814;48.224;11.422;2023-07-13T06:47:23;3.17;;;1.80;;
33475;SDS011;19814;48.224;11.422;2023-07-13T06:49:49;5.40;;;1.95;;
33475;SDS011;19814;48.224;11.422;2023-07-13T06:52:14;2.38;;;1.45;;
33475;SDS011;19814;48.224;11.422;2023-07-13T06:54:40;5.95;;;1.77;;
33475;SDS011;19814;48.224;11.422;2023-07-13T06:57:05;5.70;;;1.60;;
33475;SDS011;19814;48.224;11.422;2023-07-13T06:59:31;5.05;;;1.48;;
33475;SDS011;19814;48.224;11.422;2023-07-13T07:01:56;5.45;;;2.05;;
33475;SDS011;19814;48.224;11.422;2023-07-13T07:04:22;4.57;;;1.95;;
33475;SDS011;19814;48.224;11.422;2023-07-13T07:06:47;2.10;;;1.33;;
33475;SDS011;19814;48.224;11.422;2023-07-13T07:09:13;7.90;;;2.00;;
33475;SDS011;19814;48.224;11.422;2023-07-13T07:11:39;5.97;;;1.92;;
33475;SDS011;19814;48.224;11.422;2023-07-13T07:14:05;4.57;;;1.67;;
33475;SDS011;19814;48.224;11.422;2023-07-13T07:16:30;3.65;;;1.60;;
33475;SDS011;19814;48.224;11.422;2023-07-13T07:18:56;3.67;;;1.90;;
33475;SDS011;19814;48.224;11.422;2023-07-13T07:21:21;5.05;;;2.08;;
33475;SDS011;19814;48.224;11.422;2023-07-13T07:23:51;3.67;;;1.90;;
33475;SDS011;19814;48.224;11.422;2023-07-13T07:26:17;4.75;;;2.05;;
33475;SDS011;19814;48.224;11.422;2023-07-13T07:28:42;3.83;;;1.55;;
33475;SDS011;19814;48.224;11.422;2023-07-13T07:31:08;2.90;;;1.50;;
33475;SDS011;19814;48.224;11.422;2023-07-13T07:33:34;5.80;;;2.00;;
33475;SDS011;19814;48.224;11.422;2023-07-13T07:36:00;6.93;;;1.98;;
33475;SDS011;19814;48.224;11.422;2023-07-13T07:38:26;2.60;;;1.58;;
33475;SDS011;19814;48.224;11.422;2023-07-13T07:40:52;4.18;;;1.60;;
33475;SDS011;19814;48.224;11.422;2023-07-13T07:43:17;4.00;;;1.92;;
33475;SDS011;19814;48.224;11.422;2023-07-13T07:45:44;4.28;;;1.88;;
33475;SDS011;19814;48.224;11.422;2023-07-13T07:48:10;3.03;;;1.60;;
33475;SDS011;19814;48.224;11.422;2023-07-13T07:50:36;5.28;;;1.70;;
33475;SDS011;19814;48.224;11.422;2023-07-13T07:53:02;2.72;;;1.50;;
33475;SDS011;19814;48.224;11.422;2023-07-13T07:55:28;3.40;;;1.70;;
33475;SDS011;19814;48.224;11.422;2023-07-13T07:57:54;2.92;;;1.60;;
33475;SDS011;19814;48.224;11.422;2023-07-13T08:00:21;4.55;;;1.80;;
33475;SDS011;19814;48.224;11.422;2023-07-13T08:02:46;4.47;;;1.60;;
33475;SDS011;19814;48.224;11.422;2023-07-13T08:05:13;3.85;;;1.40;;
33475;SDS011;19814;48.224;11.422;2023-07-13T08:07:39;3.85;;;1.83;;
33475;SDS011;19814;48.224;11.422;2023-07-13T08:10:05;3.10;;;1.40;;
33475;SDS011;19814;48.224;11.422;2023-07-13T08:12:35;4.55;;;1.48;;
33475;SDS011;19814;48.224;11.422;2023-07-13T08:15:01;2.83;;;1.43;;
33475;SDS011;19814;48.224;11.422;2023-07-13T08:17:27;2.47;;;1.30;;
33475;SDS011;19814;48.224;11.422;2023-07-13T08:19:53;3.80;;;1.48;;
33475;SDS011;19814;48.224;11.422;2023-07-13T08:22:19;3.28;;;1.55;;
33475;SDS011;19814;48.224;11.422;2023-07-13T08:24:44;4.28;;;1.55;;
33475;SDS011;19814;48.224;11.422;2023-07-13T08:27:10;5.55;;;1.65;;
33475;SDS011;19814;48.224;11.422;2023-07-13T08:29:36;3.63;;;1.50;;
33475;SDS011;19814;48.224;11.422;2023-07-13T08:32:02;3.08;;;1.60;;
33475;SDS011;19814;48.224;11.422;2023-07-13T08:34:29;6.57;;;1.75;;
33475;SDS011;19814;48.224;11.422;2023-07-13T08:36:55;2.78;;;1.30;;
33475;SDS011;19814;48.224;11.422;2023-07-13T08:39:20;2.00;;;1.20;;
33475;SDS011;19814;48.224;11.422;2023-07-13T08:41:46;3.47;;;1.17;;
33475;SDS011;19814;48.224;11.422;2023-07-13T08:44:20;3.95;;;1.48;;
33475;SDS011;19814;48.224;11.422;2023-07-13T08:46:57;4.70;;;1.60;;
33475;SDS011;19814;48.224;11.422;2023-07-13T08:49:24;4.63;;;1.20;;
33475;SDS011;19814;48.224;11.422;2023-07-13T08:51:58;2.10;;;1.20;;
33475;SDS011;19814;48.224;11.422;2023-07-13T08:54:34;2.28;;;1.23;;
33475;SDS011;19814;48.224;11.422;2023-07-13T08:57:14;2.63;;;1.30;;
33475;SDS011;19814;48.224;11.422;2023-07-13T08:59:41;1.63;;;1.08;;
33475;SDS011;19814;48.224;11.422;2023-07-13T09:02:23;3.60;;;1.33;;
33475;SDS011;19814;48.224;11.422;2023-07-13T09:04:54;3.65;;;1.52;;
33475;SDS011;19814;48.224;11.422;2023-07-13T09:07:29;3.05;;;1.40;;
33475;SDS011;19814;48.224;11.422;2023-07-13T09:18:02;4.93;;;1.55;;
33475;SDS011;19814;48.224;11.422;2023-07-13T09:20:44;3.20;;;1.60;;
33475;SDS011;19814;48.224;11.422;2023-07-13T09:23:19;3.95;;;1.50;;
33475;SDS011;19814;48.224;11.422;2023-07-13T09:25:48;3.47;;;1.33;;
33475;SDS011;19814;48.224;11.422;2023-07-13T09:28:24;5.45;;;1.45;;
33475;SDS011;19814;48.224;11.422;2023-07-13T09:33:26;2.70;;;1.30;;
33475;SDS011;19814;48.224;11.422;2023-07-13T09:35:54;3.92;;;1.23;;
33475;SDS011;19814;48.224;11.422;2023-07-13T09:38:22;2.67;;;1.20;;
33475;SDS011;19814;48.224;11.422;2023-07-13T09:44:00;3.58;;;1.25;;
33475;SDS011;19814;48.224;11.422;2023-07-13T09:46:37;3.88;;;1.30;;
33475;SDS011;19814;48.224;11.422;2023-07-13T09:49:04;3.30;;;1.08;;
33475;SDS011;19814;48.224;11.422;2023-07-13T09:51:29;2.50;;;1.35;;
33475;SDS011;19814;48.224;11.422;2023-07-13T09:53:55;5.03;;;1.30;;
33475;SDS011;19814;48.224;11.422;2023-07-13T09:56:28;2.47;;;1.15;;
33475;SDS011;19814;48.224;11.422;2023-07-13T09:58:55;2.60;;;1.17;;
33475;SDS011;19814;48.224;11.422;2023-07-13T10:04:18;5.20;;;1.13;;
33475;SDS011;19814;48.224;11.422;2023-07-13T10:06:45;2.15;;;1.05;;
33475;SDS011;19814;48.224;11.422;2023-07-13T10:09:17;4.10;;;1.50;;
33475;SDS011;19814;48.224;11.422;2023-07-13T10:11:43;3.10;;;1.35;;
33475;SDS011;19814;48.224;11.422;2023-07-13T10:14:17;1.83;;;1.25;;
33475;SDS011;19814;48.224;11.422;2023-07-13T10:16:45;3.55;;;0.93;;
33475;SDS011;19814;48.224;11.422;2023-07-13T10:19:16;1.63;;;0.90;;
33475;SDS011;19814;48.224;11.422;2023-07-13T10:21:56;4.28;;;1.20;;
33475;SDS011;19814;48.224;11.422;2023-07-13T10:24:32;5.45;;;1.20;;
33475;SDS011;19814;48.224;11.422;2023-07-13T10:27:05;4.10;;;1.30;;
33475;SDS011;19814;48.224;11.422;2023-07-13T10:29:42;6.30;;;1.20;;
33475;SDS011;19814;48.224;11.422;2023-07-13T10:32:13;3.00;;;1.13;;
33475;SDS011;19814;48.224;11.422;2023-07-13T10:34:40;3.17;;;1.27;;
33475;SDS011;19814;48.224;11.422;2023-07-13T10:39:47;5.40;;;1.20;;
33475;SDS011;19814;48.224;11.422;2023-07-13T10:42:17;4.65;;;1.20;;
33475;SDS011;19814;48.224;11.422;2023-07-13T10:44:51;2.58;;;1.17;;
33475;SDS011;19814;48.224;11.422;2023-07-13T10:47:16;2.97;;;1.33;;
33475;SDS011;19814;48.224;11.422;2023-07-13T10:49:45;1.85;;;1.17;;
33475;SDS011;19814;48.224;11.422;2023-07-13T10:53:01;3.50;;;1.20;;
33475;SDS011;19814;48.224;11.422;2023-07-13T10:55:32;1.23;;;0.93;;
33475;SDS011;19814;48.224;11.422;2023-07-13T11:00:49;4.32;;;1.33;;
33475;SDS011;19814;48.224;11.422;2023-07-13T11:03:31;2.03;;;1.27;;
33475;SDS011;19814;48.224;11.422;2023-07-13T11:06:06;3.05;;;1.23;;
33475;SDS011;19814;48.224;11.422;2023-07-13T11:08:50;2.15;;;1.10;;
33475;SDS011;19814;48.224;11.422;2023-07-13T11:13:59;1.75;;;1.23;;
33475;SDS011;19814;48.224;11.422;2023-07-13T11:16:36;2.47;;;1.13;;
33475;SDS011;19814;48.224;11.422;2023-07-13T11:27:22;3.25;;;1.20;;
33475;SDS011;19814;48.224;11.422;2023-07-13T11:35:57;3.47;;;1.40;;
33475;SDS011;19814;48.224;11.422;2023-07-13T11:38:51;3.10;;;1.15;;
33475;SDS011;19814;48.224;11.422;2023-07-13T11:41:25;2.50;;;1.20;;
33475;SDS011;19814;48.224;11.422;2023-07-13T11:46:54;1.20;;;0.90;;
33475;SDS011;19814;48.224;11.422;2023-07-13T11:49:26;1.35;;;1.02;;
33475;SDS011;19814;48.224;11.422;2023-07-13T11:51:54;2.42;;;1.10;;
33475;SDS011;19814;48.224;11.422;2023-07-13T11:57:01;3.33;;;1.13;;
33475;SDS011;19814;48.224;11.422;2023-07-13T11:59:48;2.38;;;1.15;;
33475;SDS011;19814;48.224;11.422;2023-07-13T12:02:17;3.83;;;0.80;;
33475;SDS011;19814;48.224;11.422;2023-07-13T12:04:49;1.42;;;0.90;;
33475;SDS011;19814;48.224;11.422;2023-07-13T12:07:17;1.58;;;0.80;;
33475;SDS011;19814;48.224;11.422;2023-07-13T12:09:43;1.33;;;0.82;;
33475;SDS011;19814;48.224;11.422;2023-07-13T12:12:10;2.72;;;0.90;;
33475;SDS011;19814;48.224;11.422;2023-07-13T12:14:38;2.78;;;0.95;;
33475;SDS011;19814;48.224;11.422;2023-07-13T12:17:08;3.78;;;0.95;;
33475;SDS011;19814;48.224;11.422;2023-07-13T12:19:45;1.40;;;0.90;;
33475;SDS011;19814;48.224;11.422;2023-07-13T12:22:13;2.40;;;0.80;;
33475;SDS011;19814;48.224;11.422;2023-07-13T12:24:41;1.70;;;1.02;;
33475;SDS011;19814;48.224;11.422;2023-07-13T12:27:21;1.67;;;1.00;;
33475;SDS011;19814;48.224;11.422;2023-07-13T12:30:32;1.48;;;1.05;;
33475;SDS011;19814;48.224;11.422;2023-07-13T12:33:07;1.65;;;0.88;;
33475;SDS011;19814;48.224;11.422;2023-07-13T12:35:40;2.15;;;0.98;;
33475;SDS011;19814;48.224;11.422;2023-07-13T12:38:10;2.50;;;0.82;;
33475;SDS011;19814;48.224;11.422;2023-07-13T12:40:36;1.48;;;0.90;;
33475;SDS011;19814;48.224;11.422;2023-07-13T12:43:03;1.48;;;0.80;;
33475;SDS011;19814;48.224;11.422;2023-07-13T12:45:31;3.03;;;1.55;;
33475;SDS011;19814;48.224;11.422;2023-07-13T12:48:04;5.05;;;1.38;;
33475;SDS011;19814;48.224;11.422;2023-07-13T12:50:42;1.42;;;0.90;;
33475;SDS011;19814;48.224;11.422;2023-07-13T12:53:15;1.85;;;1.10;;
33475;SDS011;19814;48.224;11.422;2023-07-13T12:55:49;1.38;;;0.90;;
33475;SDS011;19814;48.224;11.422;2023-07-13T12:58:20;1.58;;;0.90;;
33475;SDS011;19814;48.224;11.422;2023-07-13T13:00:51;2.90;;;1.02;;
33475;SDS011;19814;48.224;11.422;2023-07-13T13:03:26;3.90;;;1.10;;
33475;SDS011;19814;48.224;11.422;2023-07-13T13:06:02;2.20;;;1.15;;
33475;SDS011;19814;48.224;11.422;2023-07-13T13:08:30;3.03;;;0.98;;
33475;SDS011;19814;48.224;11.422;2023-07-13T13:10:57;1.92;;;1.02;;
33475;SDS011;19814;48.224;11.422;2023-07-13T13:13:23;4.10;;;0.98;;
33475;SDS011;19814;48.224;11.422;2023-07-13T13:15:49;4.63;;;1.30;;
33475;SDS011;19814;48.224;11.422;2023-07-13T13:18:22;2.55;;;0.93;;
33475;SDS011;19814;48.224;11.422;2023-07-13T13:20:49;2.80;;;1.25;;
33475;SDS011;19814;48.224;11.422;2023-07-13T13:23:16;3.70;;;1.48;;
33475;SDS011;19814;48.224;11.422;2023-07-13T13:25:45;2.50;;;0.90;;
33475;SDS011;19814;48.224;11.422;2023-07-13T13:28:13;2.08;;;1.00;;
33475;SDS011;19814;48.224;11.422;2023-07-13T13:30:41;2.80;;;1.00;;
33475;SDS011;19814;48.224;11.422;2023-07-13T13:33:11;3.67;;;0.95;;
33475;SDS011;19814;48.224;11.422;2023-07-13T13:35:40;1.05;;;0.82;;
33475;SDS011;19814;48.224;11.422;2023-07-13T13:38:15;2.47;;;1.27;;
33475;SDS011;19814;48.224;11.422;2023-07-13T13:40:42;2.00;;;0.90;;
33475;SDS011;19814;48.224;11.422;2023-07-13T13:45:44;5.18;;;0.95;;
33475;SDS011;19814;48.224;11.422;2023-07-13T13:48:15;1.92;;;1.10;;
33475;SDS011;19814;48.224;11.422;2023-07-13T13:50:43;2.10;;;0.80;;
33475;SDS011;19814;48.224;11.422;2023-07-13T13:53:10;2.35;;;1.10;;
33475;SDS011;19814;48.224;11.422;2023-07-13T13:55:38;3.70;;;1.13;;
33475;SDS011;19814;48.224;11.422;2023-07-13T13:58:06;1.75;;;0.88;;
33475;SDS011;19814;48.224;11.422;2023-07-13T14:00:33;2.95;;;1.00;;
33475;SDS011;19814;48.224;11.422;2023-07-13T14:02:58;1.83;;;0.90;;
33475;SDS011;19814;48.224;11.422;2023-07-13T14:05:25;4.35;;;1.20;;
33475;SDS011;19814;48.224;11.422;2023-07-13T14:07:51;2.60;;;0.85;;
33475;SDS011;19814;48.224;11.422;2023-07-13T14:10:19;2.30;;;1.08;;
33475;SDS011;19814;48.224;11.422;2023-07-13T14:12:45;1.70;;;0.98;;
33475;SDS011;19814;48.224;11.422;2023-07-13T14:15:23;2.90;;;1.10;;
33475;SDS011;19814;48.224;11.422;2023-07-13T14:17:51;2.58;;;1.15;;
33475;SDS011;19814;48.224;11.422;2023-07-13T14:20:18;3.33;;;1.60;;
33475;SDS011;19814;48.224;11.422;2023-07-13T14:22:45;1.55;;;0.95;;
33475;SDS011;19814;48.224;11.422;2023-07-13T14:25:11;2.35;;;1.05;;
33475;SDS011;19814;48.224;11.422;2023-07-13T14:27:38;1.73;;;0.90;;
33475;SDS011;19814;48.224;11.422;2023-07-13T14:30:09;1.92;;;0.90;;
33475;SDS011;19814;48.224;11.422;2023-07-13T14:32:46;1.23;;;0.77;;
33475;SDS011;19814;48.224;11.422;2023-07-13T14:35:14;1.58;;;0.95;;
33475;SDS011;19814;48.224;11.422;2023-07-13T14:37:41;2.50;;;1.45;;
33475;SDS011;19814;48.224;11.422;2023-07-13T14:40:12;2.85;;;1.25;;
33475;SDS011;19814;48.224;11.422;2023-07-13T14:42:41;2.17;;;0.95;;
33475;SDS011;19814;48.224;11.422;2023-07-13T14:45:12;1.35;;;0.82;;
33475;SDS011;19814;48.224;11.422;2023-07-13T14:47:43;2.70;;;1.15;;
33475;SDS011;19814;48.224;11.422;2023-07-13T14:50:13;2.28;;;1.25;;
33475;SDS011;19814;48.224;11.422;2023-07-13T14:52:44;1.67;;;1.00;;
33475;SDS011;19814;48.224;11.422;2023-07-13T14:55:11;1.73;;;0.93;;
33475;SDS011;19814;48.224;11.422;2023-07-13T14:57:38;2.08;;;1.13;;
33475;SDS011;19814;48.224;11.422;2023-07-13T15:00:05;2.33;;;1.00;;
33475;SDS011;19814;48.224;11.422;2023-07-13T15:02:50;3.03;;;1.10;;
33475;SDS011;19814;48.224;11.422;2023-07-13T15:05:20;4.20;;;1.25;;
33475;SDS011;19814;48.224;11.422;2023-07-13T15:07:49;1.33;;;1.02;;
33475;SDS011;19814;48.224;11.422;2023-07-13T15:10:19;1.42;;;0.95;;
33475;SDS011;19814;48.224;11.422;2023-07-13T15:12:51;1.85;;;1.05;;
33475;SDS011;19814;48.224;11.422;2023-07-13T15:15:18;1.70;;;1.10;;
33475;SDS011;19814;48.224;11.422;2023-07-13T15:17:44;3.08;;;1.23;;
33475;SDS011;19814;48.224;11.422;2023-07-13T15:20:16;2.63;;;1.10;;
33475;SDS011;19814;48.224;11.422;2023-07-13T15:22:43;3.80;;;1.20;;
33475;SDS011;19814;48.224;11.422;2023-07-13T15:25:18;1.48;;;1.00;;
33475;SDS011;19814;48.224;11.422;2023-07-13T15:27:45;2.35;;;0.90;;
33475;SDS011;19814;48.224;11.422;2023-07-13T15:30:11;2.85;;;1.15;;